ローマ/フィウミチーノ の空港の天気 - METARとTAF

ローマ・レオナルド・ダ・ビンチ国際空港 ( LIRF / FCO ) - イタリア ローマ
飛行場実況気象(Metar)
観測時間02/17 15:20 CET (02/17 14:20 UTC)
風向・風速西 4m/s
視程10km以上
天気現象
なし
気温13℃
湿度77%
気圧1028hPa
METARLIRF 171420Z 27008KT CAVOK 13/09 Q1028 NOSIG
過去の天気等 Google飛行場航空写真 Wunderground天気予報

過去48時間のMETAR

飛行場予報(TAF)
発表時間: 2/17 12:00 CET (2/17 11:00 UTC)
予報対象時間: 17日13時 CET ~ 18日19時 CET
風向・風速不定 3m/s
視程10km以上
なし
17日22時 CET ~ 17日24時 CET に徐々に
視程3000m
天気現象もや
18日1時 CET ~ 18日7時 CET に一時的に
視程800m
天気現象散在した霧
18日9時 CET ~ 18日11時 CET に徐々に
視程10km以上
TAF LIRF 171100Z 1712/1818 VRB06KT CAVOK
BECMG 1721/1723 3000 BR
TEMPO 1800/1806 0800 BCFG
BECMG 1808/1810 9999